createdAt,value
2017-07-14T09:19:19.600Z,40.40
2017-07-14T09:21:50.017Z,43.50
2017-07-14T09:24:18.901Z,43.70
2017-07-14T09:26:47.790Z,44.10
2017-07-14T09:29:16.677Z,44.70
2017-07-14T09:31:45.562Z,45.20
2017-07-14T09:34:14.446Z,45.10
2017-07-14T09:36:43.331Z,45.20
2017-07-14T09:39:12.228Z,45.30
2017-07-14T09:41:41.116Z,45.00
2017-07-14T09:44:10.000Z,44.60
2017-07-14T09:46:39.660Z,44.50
2017-07-14T09:49:08.540Z,44.50
2017-07-14T09:51:37.422Z,44.40
2017-07-14T09:54:06.302Z,44.60
2017-07-14T09:56:35.803Z,44.90
2017-07-14T09:59:04.684Z,44.40
2017-07-14T10:01:34.345Z,44.70
2017-07-14T10:04:03.224Z,44.50
2017-07-14T10:06:32.095Z,44.20
2017-07-14T10:09:00.977Z,44.00
2017-07-14T10:11:29.860Z,44.30
2017-07-14T10:13:59.517Z,44.60
2017-07-14T10:16:28.396Z,44.70
2017-07-14T10:18:57.274Z,44.80
2017-07-14T10:21:26.130Z,45.00
2017-07-14T10:23:55.739Z,45.30
2017-07-14T10:26:24.613Z,45.20
2017-07-14T10:28:53.527Z,45.30
2017-07-14T10:31:23.237Z,45.40
2017-07-14T10:33:52.889Z,45.80
2017-07-14T10:36:21.760Z,45.80
2017-07-14T10:38:50.640Z,45.70
2017-07-14T10:41:19.491Z,45.80
2017-07-14T10:43:48.374Z,46.00
2017-07-14T10:46:17.249Z,46.70
2017-07-14T10:48:46.139Z,47.10
2017-07-14T10:51:15.026Z,46.80
2017-07-14T10:53:43.901Z,46.60
2017-07-14T10:56:12.786Z,47.00
2017-07-14T10:58:41.661Z,47.10
2017-07-14T11:01:10.539Z,47.20
2017-07-14T11:03:39.421Z,47.50
2017-07-14T11:06:08.315Z,47.40
2017-07-14T11:08:37.199Z,47.10
2017-07-14T11:11:06.088Z,47.10
2017-07-14T11:13:34.943Z,47.30
2017-07-14T11:16:03.826Z,47.20
2017-07-14T11:18:32.714Z,47.10
2017-07-14T11:21:01.591Z,47.10
2017-07-14T11:23:30.474Z,47.20
2017-07-14T11:26:00.127Z,47.30
2017-07-14T11:28:29.004Z,47.30
2017-07-14T11:30:57.890Z,46.90
2017-07-14T11:33:26.777Z,46.70
2017-07-14T11:35:55.626Z,46.70
2017-07-14T11:38:24.516Z,46.50
2017-07-14T11:40:53.403Z,46.30
2017-07-14T11:43:22.282Z,45.90
2017-07-14T11:45:51.160Z,46.40
2017-07-14T11:48:20.010Z,46.80
2017-07-14T11:50:48.901Z,47.20
2017-07-14T11:53:18.570Z,47.50
2017-07-14T11:55:47.458Z,47.50
2017-07-14T11:58:16.416Z,47.20
2017-07-14T12:00:45.297Z,48.80
2017-07-14T12:03:14.992Z,51.60
2017-07-14T12:05:44.611Z,52.80
2017-07-14T12:08:13.498Z,52.80
2017-07-14T12:10:43.150Z,54.10
2017-07-14T12:13:12.029Z,54.00
2017-07-14T12:15:40.909Z,54.50
2017-07-14T12:18:09.784Z,54.70
2017-07-14T12:20:39.443Z,55.60
2017-07-14T12:23:08.293Z,55.60
2017-07-14T12:25:37.170Z,56.30
2017-07-14T12:28:06.820Z,57.20
2017-07-14T12:30:35.676Z,57.20
2017-07-14T12:33:05.361Z,57.30
2017-07-14T12:35:34.204Z,57.30
2017-07-14T12:38:03.085Z,57.40
2017-07-14T12:40:31.961Z,56.90
2017-07-14T12:43:00.867Z,56.70
2017-07-14T12:45:29.749Z,56.70
2017-07-14T12:47:58.679Z,56.40
2017-07-14T12:50:27.582Z,56.50
2017-07-14T12:52:56.464Z,56.20
2017-07-14T12:55:25.362Z,56.10
2017-07-14T12:57:54.252Z,56.00
2017-07-14T13:00:23.149Z,56.00
2017-07-14T13:02:52.033Z,56.10
2017-07-14T13:05:20.942Z,56.00
2017-07-14T13:07:49.826Z,56.10
2017-07-14T13:10:18.696Z,55.80
2017-07-14T13:12:47.571Z,55.90
2017-07-14T13:15:16.427Z,56.00
2017-07-14T13:17:45.300Z,55.80
2017-07-14T13:20:14.180Z,55.50
2017-07-14T13:22:43.055Z,55.50
2017-07-14T13:25:11.986Z,55.30
2017-07-14T13:27:40.873Z,55.10
2017-07-14T13:30:09.750Z,55.00
2017-07-14T13:32:38.649Z,54.30
2017-07-14T13:35:07.538Z,54.30
2017-07-14T13:37:36.418Z,53.60
2017-07-14T13:40:05.301Z,53.40
2017-07-14T13:42:34.203Z,53.30
2017-07-14T13:45:03.089Z,53.20
2017-07-14T13:47:31.972Z,53.30
2017-07-14T13:50:00.941Z,52.90
2017-07-14T13:52:29.839Z,52.90
2017-07-14T13:54:58.726Z,52.50
2017-07-14T13:57:27.580Z,52.50
2017-07-14T13:59:56.463Z,51.90
2017-07-14T14:02:25.336Z,50.80
2017-07-14T14:04:54.195Z,50.40
2017-07-14T14:07:23.033Z,50.10
2017-07-14T14:09:51.916Z,50.00
2017-07-14T14:12:20.802Z,49.70
2017-07-14T14:14:49.680Z,49.40
2017-07-14T14:17:18.548Z,48.60
2017-07-14T14:19:47.434Z,48.70
2017-07-14T14:22:16.304Z,48.20
2017-07-14T14:24:45.187Z,48.10
2017-07-14T14:27:14.832Z,48.10
2017-07-14T14:29:43.717Z,48.00
2017-07-14T14:32:12.716Z,48.10
2017-07-14T14:34:41.608Z,48.10
2017-07-14T14:37:10.493Z,47.90
2017-07-14T14:39:39.396Z,47.60
2017-07-14T14:42:08.290Z,47.70
2017-07-14T14:44:37.173Z,47.90
2017-07-14T14:47:06.027Z,47.60
2017-07-14T14:49:34.917Z,47.10
2017-07-14T14:52:03.762Z,46.70
2017-07-14T14:54:32.640Z,46.60
2017-07-14T14:57:01.525Z,46.50
2017-07-14T14:59:30.423Z,46.50
2017-07-14T15:01:59.312Z,46.30
2017-07-14T15:04:28.200Z,46.30
2017-07-14T15:06:57.086Z,46.50
2017-07-14T15:09:25.936Z,46.90
2017-07-14T15:11:54.817Z,46.70
2017-07-14T15:14:23.718Z,46.80
2017-07-14T15:16:52.615Z,46.90
2017-07-14T15:19:21.503Z,46.60
2017-07-14T15:21:50.210Z,46.70
2017-07-14T15:24:19.724Z,47.00
2017-07-14T15:26:49.371Z,47.10
2017-07-14T15:29:18.270Z,47.10
2017-07-14T15:31:47.147Z,47.10
2017-07-14T15:34:16.030Z,46.80
2017-07-14T15:36:44.874Z,46.30
2017-07-14T15:39:13.765Z,46.40
2017-07-14T15:41:42.662Z,46.60
2017-07-14T15:44:11.553Z,46.00
2017-07-14T15:46:40.432Z,45.80
2017-07-14T15:49:09.743Z,45.70
2017-07-14T15:51:38.643Z,45.50
2017-07-14T15:54:07.528Z,45.90
2017-07-14T15:56:36.398Z,45.90
2017-07-14T15:59:05.281Z,46.00
2017-07-14T16:01:34.160Z,46.10
2017-07-14T16:04:03.053Z,45.90
2017-07-14T16:06:31.932Z,45.50
2017-07-14T16:09:00.808Z,45.30
2017-07-14T16:11:30.436Z,45.10
2017-07-14T16:13:59.289Z,45.10
2017-07-14T16:16:28.935Z,45.30
2017-07-14T16:18:57.823Z,45.30
2017-07-14T16:21:26.721Z,44.80
2017-07-14T16:23:55.600Z,44.00
2017-07-14T16:26:24.496Z,43.50
2017-07-14T16:28:53.393Z,42.80
2017-07-14T16:31:22.285Z,43.00
2017-07-14T16:33:51.173Z,42.70
2017-07-14T16:36:20.052Z,42.80
2017-07-14T16:38:48.951Z,43.00
2017-07-14T16:41:17.851Z,42.70
2017-07-14T16:43:46.705Z,42.00
2017-07-14T16:46:16.324Z,41.40
2017-07-14T16:48:45.213Z,41.40
2017-07-14T16:51:14.899Z,41.10
2017-07-14T16:53:43.793Z,41.10
2017-07-14T16:56:12.677Z,41.20
2017-07-14T16:58:41.528Z,41.40
2017-07-14T17:01:10.396Z,41.70
2017-07-14T17:03:39.289Z,41.80
2017-07-14T17:06:08.164Z,41.90
2017-07-14T17:08:37.046Z,42.70
2017-07-14T17:11:05.923Z,43.10
2017-07-14T17:13:34.809Z,43.40
2017-07-14T17:16:03.702Z,43.70
2017-07-14T17:18:32.593Z,43.90
2017-07-14T17:21:13.495Z,44.00
2017-07-14T17:23:42.641Z,44.30
2017-07-14T17:26:11.514Z,44.90
2017-07-14T17:28:40.407Z,44.90
2017-07-14T17:31:09.284Z,45.10
2017-07-14T17:33:38.165Z,45.30
2017-07-14T17:36:07.813Z,46.80
2017-07-14T17:38:36.699Z,46.80
2017-07-14T17:41:05.577Z,48.80
2017-07-14T17:43:34.449Z,49.60
2017-07-14T17:46:03.324Z,52.00
2017-07-14T17:48:32.210Z,54.30
2017-07-14T17:51:01.064Z,55.80
2017-07-14T17:53:29.935Z,56.90
2017-07-14T17:55:58.827Z,57.90
2017-07-14T17:58:27.718Z,58.60
2017-07-14T18:00:56.615Z,59.20
2017-07-14T18:03:25.491Z,59.40
2017-07-14T18:05:54.386Z,60.20
2017-07-14T18:08:23.240Z,60.80
2017-07-14T18:10:52.138Z,61.80
2017-07-14T18:13:21.036Z,62.70
2017-07-14T18:15:49.921Z,63.50
2017-07-14T18:18:18.829Z,64.60
2017-07-14T18:20:47.745Z,65.40
2017-07-14T18:23:16.628Z,66.20
2017-07-14T18:25:45.513Z,67.10
2017-07-14T18:28:14.412Z,67.20
2017-07-14T18:30:43.325Z,66.50
2017-07-14T18:33:12.223Z,67.20
2017-07-14T18:35:41.112Z,67.40
2017-07-14T18:38:09.997Z,68.10
2017-07-14T18:40:38.895Z,68.90
2017-07-14T18:43:07.778Z,69.10
2017-07-14T18:45:36.671Z,69.30
2017-07-14T18:48:05.570Z,69.40
2017-07-14T18:50:34.470Z,69.70
2017-07-14T18:53:03.378Z,69.70
2017-07-14T18:55:32.266Z,69.80
2017-07-14T18:58:01.164Z,70.10
2017-07-14T19:00:30.056Z,70.40
2017-07-14T19:02:58.968Z,71.40
2017-07-14T19:05:27.941Z,71.60
2017-07-14T19:07:56.825Z,71.90
2017-07-14T19:10:25.717Z,72.40
2017-07-14T19:12:54.651Z,72.50
2017-07-14T19:15:24.318Z,72.20
2017-07-14T19:17:53.205Z,72.10
2017-07-14T19:20:22.081Z,71.80
2017-07-14T19:22:50.967Z,72.10
2017-07-14T19:25:19.867Z,72.50
2017-07-14T19:27:49.090Z,72.40
2017-07-14T19:30:17.985Z,72.60
2017-07-14T19:32:46.708Z,73.10
2017-07-14T19:35:15.589Z,73.40
2017-07-14T19:37:45.262Z,74.10
2017-07-14T19:40:14.600Z,73.30
2017-07-14T19:42:44.280Z,73.70
2017-07-14T19:45:13.180Z,73.70
2017-07-14T19:47:42.082Z,73.90
2017-07-14T19:50:10.982Z,74.00
2017-07-14T19:52:40.660Z,74.40
2017-07-14T19:55:09.560Z,74.20
2017-07-14T19:57:38.457Z,74.70
2017-07-14T20:00:07.316Z,74.80
2017-07-14T20:02:36.225Z,74.90
2017-07-14T20:05:05.138Z,74.70
2017-07-14T20:07:34.042Z,74.80
2017-07-14T20:10:03.722Z,75.30
2017-07-14T20:12:32.646Z,75.30
2017-07-14T20:15:02.323Z,75.50
2017-07-14T20:17:31.186Z,75.40
2017-07-14T20:20:00.060Z,75.60
2017-07-14T20:22:28.919Z,75.80
2017-07-14T20:24:58.595Z,75.40
2017-07-14T20:27:27.484Z,75.40
2017-07-14T20:29:56.389Z,75.40
2017-07-14T20:32:25.289Z,75.40
2017-07-14T20:34:54.159Z,75.40
2017-07-14T20:37:23.074Z,75.80
2017-07-14T20:39:51.790Z,76.20
2017-07-14T20:42:21.440Z,76.60
2017-07-14T20:44:50.423Z,76.60
2017-07-14T20:47:19.301Z,77.20
2017-07-14T20:49:48.209Z,77.50
2017-07-14T20:52:17.102Z,77.90
2017-07-14T20:54:47.375Z,77.80
2017-07-14T20:57:16.265Z,77.70
2017-07-14T20:59:45.166Z,77.50
2017-07-14T21:02:14.005Z,77.00
2017-07-14T21:04:42.918Z,76.10
2017-07-14T21:07:11.822Z,75.60
2017-07-14T21:09:40.710Z,75.10
2017-07-14T21:12:09.672Z,74.90
2017-07-14T21:14:39.102Z,74.80
2017-07-14T21:17:07.987Z,74.50
2017-07-14T21:19:36.876Z,74.30
2017-07-14T21:22:05.774Z,74.30
2017-07-14T21:24:34.666Z,73.90
2017-07-14T21:27:03.544Z,73.70
2017-07-14T21:29:32.425Z,73.50
2017-07-14T21:32:01.267Z,73.40
2017-07-14T21:34:30.125Z,73.40
2017-07-14T21:36:59.005Z,73.50
2017-07-14T21:39:27.850Z,73.60
2017-07-14T21:41:56.733Z,74.40
2017-07-14T21:44:25.626Z,73.30
2017-07-14T21:46:54.529Z,73.20
2017-07-14T21:49:23.403Z,73.40
2017-07-14T21:51:52.295Z,73.40
2017-07-14T21:54:21.186Z,73.60
2017-07-14T21:56:50.075Z,73.70
2017-07-14T21:59:18.975Z,73.70
2017-07-14T22:01:47.857Z,74.00
2017-07-14T22:04:16.740Z,74.30
2017-07-14T22:06:45.600Z,75.10
2017-07-14T22:09:14.487Z,75.60
2017-07-14T22:11:43.386Z,75.70
2017-07-14T22:14:12.257Z,76.00
2017-07-14T22:16:41.140Z,76.10
2017-07-14T22:19:10.784Z,76.10
2017-07-14T22:21:39.678Z,76.10
2017-07-14T22:24:08.528Z,76.20
2017-07-14T22:26:38.169Z,76.70
2017-07-14T22:29:07.037Z,76.20
2017-07-14T22:31:35.933Z,75.90
2017-07-14T22:34:04.824Z,76.00
2017-07-14T22:36:33.716Z,75.90
2017-07-14T22:39:02.626Z,75.80
2017-07-14T22:41:31.521Z,76.00
2017-07-14T22:44:00.396Z,76.00
2017-07-14T22:46:29.277Z,76.90
2017-07-14T22:48:58.173Z,76.40
2017-07-14T22:51:27.063Z,76.30
2017-07-14T22:53:55.969Z,76.20
2017-07-14T22:56:24.871Z,76.20
2017-07-14T22:58:53.778Z,76.90
2017-07-14T23:01:22.673Z,76.20
2017-07-14T23:03:51.565Z,76.20
2017-07-14T23:06:20.475Z,76.20
2017-07-14T23:08:49.348Z,76.20
2017-07-14T23:11:18.249Z,76.20
2017-07-14T23:13:47.204Z,76.20
2017-07-14T23:16:16.093Z,76.10
2017-07-14T23:18:44.977Z,76.10
2017-07-14T23:21:13.874Z,76.10
2017-07-14T23:23:42.770Z,76.00
2017-07-14T23:26:11.673Z,76.00
2017-07-14T23:28:40.551Z,75.90
2017-07-14T23:31:09.454Z,75.90
2017-07-14T23:33:38.364Z,76.00
2017-07-14T23:36:07.330Z,76.00
2017-07-14T23:38:36.237Z,75.90
2017-07-14T23:41:05.120Z,75.80
2017-07-14T23:43:33.982Z,76.20
2017-07-14T23:46:03.637Z,76.70
2017-07-14T23:48:32.542Z,76.70
2017-07-14T23:51:01.445Z,76.60
2017-07-14T23:53:30.307Z,76.80
2017-07-14T23:55:59.176Z,77.30
2017-07-14T23:58:28.074Z,77.50
